Time;durP1;ratioP1;P1;durP2;ratioP2;P2;SDS_P1;SDS_P2;PMS_P1;PMS_P2;Temp;Humidity;BMP_temperature;BMP_pressure;BME280_temperature;BME280_humidity;BME280_pressure;Samples;Min_cycle;Max_cycle;Signal;HPM_P1;HPM_P2
2021/07/21 00:00:13;;;;;;;16.40;13.77;;;;;;;21.06;74.47;96617.38;5023142;28;20083;-65
2021/07/21 00:02:40;;;;;;;18.00;13.50;;;;;;;21.08;74.42;96612.06;5038068;28;20065;-64
2021/07/21 00:05:11;;;;;;;17.15;13.63;;;;;;;20.94;74.33;96609.66;5023389;28;20049;-65
2021/07/21 00:07:39;;;;;;;14.63;13.10;;;;;;;20.89;74.92;96610.22;5038737;28;20046;-64
2021/07/21 00:10:08;;;;;;;20.85;13.60;;;;;;;20.88;75.03;96600.97;5037887;28;20642;-65
2021/07/21 00:15:30;;;;;;;17.42;13.90;;;;;;;20.69;75.11;96598.38;5023299;28;20053;-64
2021/07/21 00:18:14;;;;;;;19.50;14.32;;;;;;;20.54;75.20;96563.41;5023440;28;20205;-65
2021/07/21 00:20:41;;;;;;;;;;;;;;;20.78;75.08;96615.38;5034405;28;20079;-65
2021/07/21 00:23:07;;;;;;;16.17;14.15;;;;;;;20.52;76.62;96616.53;5042807;28;20318;-67
2021/07/21 00:25:34;;;;;;;18.58;13.98;;;;;;;20.27;76.44;96577.06;5043242;28;20056;-66
2021/07/21 00:28:01;;;;;;;16.33;14.23;;;;;;;19.91;76.59;96537.88;5042727;28;20060;-67
2021/07/21 00:30:28;;;;;;;16.58;14.20;;;;;;;20.40;76.05;96604.03;5041100;28;20056;-67
2021/07/21 00:32:55;;;;;;;18.85;15.02;;;;;;;20.70;75.11;96616.81;5040796;28;20534;-66
2021/07/21 00:35:22;;;;;;;27.50;14.63;;;;;;;18.81;74.71;96370.69;5041887;28;20131;-65
2021/07/21 00:37:48;;;;;;;17.67;14.32;;;;;;;20.63;74.66;96622.66;5046229;28;20053;-66
2021/07/21 00:40:17;;;;;;;19.50;14.30;;;;;;;20.51;75.10;96621.41;5044554;28;20067;-66
2021/07/21 00:42:45;;;;;;;17.75;15.45;;;;;;;20.45;75.85;96616.75;5046298;28;20057;-65
2021/07/21 00:45:12;;;;;;;18.30;14.27;;;;;;;20.41;76.24;96625.28;5046499;28;20511;-65
2021/07/21 00:47:39;;;;;;;16.83;14.80;;;;;;;20.48;76.42;96621.50;5044766;28;20434;-66
2021/07/21 00:50:09;;;;;;;17.02;13.85;;;;;;;18.77;76.35;96350.34;5044221;28;20076;-64
2021/07/21 00:52:38;;;;;;;17.05;13.40;;;;;;;20.24;77.26;96611.72;5045704;28;20061;-64
2021/07/21 00:55:07;;;;;;;17.05;13.85;;;;;;;20.21;77.30;96612.59;5045815;28;20516;-62
2021/07/21 00:57:33;;;;;;;18.35;14.50;;;;;;;19.91;76.97;96570.81;5046022;28;20486;-63
2021/07/21 01:00:00;;;;;;;17.02;14.68;;;;;;;20.09;77.92;96621.75;5044476;28;20055;-62
2021/07/21 01:02:27;;;;;;;20.95;15.70;;;;;;;20.03;78.52;96601.81;5044316;28;20048;-63
2021/07/21 01:04:54;;;;;;;17.77;15.80;;;;;;;19.93;78.72;96597.28;5046114;28;20393;-63
2021/07/21 01:07:21;;;;;;;19.35;15.18;;;;;;;19.93;79.18;96602.09;5044620;28;20048;-62
2021/07/21 01:09:48;;;;;;;19.23;16.33;;;;;;;19.49;78.74;96533.38;5045703;28;20522;-63
2021/07/21 01:12:32;;;;;;;17.08;15.23;;;;;;;19.74;80.27;96619.88;5060624;28;20060;-65
2021/07/21 01:15:08;;;;;;;20.05;15.95;;;;;;;19.82;79.38;96618.47;5044414;28;20052;-64
2021/07/21 01:18:03;;;;;;;17.73;15.23;;;;;;;19.77;80.09;96621.81;5045688;28;20061;-64
2021/07/21 01:21:12;;;;;;;18.90;15.45;;;;;;;19.65;79.86;96592.38;5035952;28;20046;-65
2021/07/21 01:23:48;;;;;;;16.15;14.43;;;;;;;19.75;80.67;96615.81;5024791;28;20088;-65
2021/07/21 01:26:20;;;;;;;23.67;16.42;;;;;;;19.71;81.01;96617.94;5024306;28;20136;-66
2021/07/21 01:28:48;;;;;;;22.25;16.48;;;;;;;19.31;80.67;96542.28;5024310;28;20053;-64
2021/07/21 01:31:22;;;;;;;19.70;16.67;;;;;;;19.32;80.34;96529.81;5024138;28;20049;-64
2021/07/21 01:33:49;;;;;;;19.10;14.98;;;;;;;19.41;80.50;96538.41;5040061;28;20053;-64
2021/07/21 01:36:23;;;;;;;18.60;14.52;;;;;;;19.92;79.09;96595.69;5023745;28;20050;-65
2021/07/21 01:38:53;;;;;;;15.20;13.60;;;;;;;20.04;77.02;96588.56;5023422;28;20061;-66
2021/07/21 01:41:23;;;;;;;17.70;12.85;;;;;;;19.71;74.74;96522.38;5025175;28;20615;-64
2021/07/21 01:43:54;;;;;;;17.40;13.25;;;;;;;20.20;75.44;96603.38;5023874;28;20056;-65
2021/07/21 01:46:23;;;;;;;15.80;12.90;;;;;;;19.98;75.13;96536.91;5025047;28;20068;-65
2021/07/21 01:48:55;;;;;;;15.68;13.77;;;;;;;20.44;75.05;96592.66;5039310;28;20131;-65
2021/07/21 01:51:24;;;;;;;14.82;13.32;;;;;;;20.49;74.65;96597.72;5024829;28;20526;-64
2021/07/21 01:53:53;;;;;;;13.45;11.93;;;;;;;20.61;72.93;96594.19;5023526;28;20049;-64
2021/07/21 01:56:22;;;;;;;16.63;13.07;;;;;;;20.62;72.82;96593.72;5024532;28;20478;-64
2021/07/21 01:58:52;;;;;;;18.90;12.88;;;;;;;18.50;72.82;96282.53;5022762;28;20058;-65
2021/07/21 02:01:20;;;;;;;14.38;11.50;;;;;;;20.63;69.30;96589.69;5024874;28;20064;-65
2021/07/21 02:03:48;;;;;;;16.02;12.18;;;;;;;20.75;70.08;96591.72;5024794;28;20053;-66
2021/07/21 02:06:16;;;;;;;18.23;12.38;;;;;;;20.55;71.05;96573.47;5023535;28;20199;-65
2021/07/21 02:08:44;;;;;;;15.35;12.30;;;;;;;20.63;70.13;96583.25;5024193;28;20630;-65
2021/07/21 02:11:11;;;;;;;18.20;12.65;;;;;;;20.36;70.17;96540.66;5024995;28;20058;-64
2021/07/21 02:13:38;;;;;;;15.98;11.68;;;;;;;20.65;70.02;96584.41;5024501;28;20064;-65
2021/07/21 02:16:07;;;;;;;14.23;10.35;;;;;;;20.69;67.70;96592.75;5023157;28;20049;-64
2021/07/21 02:18:35;;;;;;;16.17;10.73;;;;;;;20.94;66.02;96592.78;5024385;28;20084;-65
2021/07/21 02:21:07;;;;;;;16.75;10.50;;;;;;;21.05;65.51;96593.25;5037548;28;20140;-64
2021/07/21 02:23:35;;;;;;;13.20;11.18;;;;;;;20.75;65.56;96548.72;5044782;28;20431;-65
2021/07/21 02:26:03;;;;;;;16.08;11.38;;;;;;;21.15;65.59;96603.38;5043163;28;20128;-65
2021/07/21 02:28:30;;;;;;;14.40;11.48;;;;;;;20.79;65.77;96553.00;5044468;28;20659;-65
2021/07/21 02:31:02;;;;;;;17.25;11.38;;;;;;;21.21;65.94;96606.44;5043137;28;20055;-66
2021/07/21 02:33:50;;;;;;;16.60;11.15;;;;;;;20.67;69.14;96617.72;5042743;28;20431;-66
2021/07/21 02:36:18;;;;;;;16.27;11.88;;;;;;;20.53;70.30;96601.25;5044757;28;20060;-65
2021/07/21 02:38:46;;;;;;;16.92;12.57;;;;;;;20.30;70.71;96584.63;5043688;28;20484;-66
2021/07/21 02:41:13;;;;;;;33.83;17.77;;;;;;;20.09;73.42;96618.94;5044392;28;20057;-66
2021/07/21 02:43:40;;;;;;;24.40;14.65;;;;;;;20.17;73.65;96617.56;5042934;28;20063;-66
2021/07/21 02:46:07;;;;;;;17.67;13.57;;;;;;;20.17;73.50;96635.19;5042784;28;20045;-65
2021/07/21 02:48:34;;;;;;;17.95;13.60;;;;;;;19.39;73.95;96507.16;5043654;28;20540;-65
2021/07/21 02:51:07;;;;;;;15.38;13.77;;;;;;;19.92;74.22;96589.25;5043897;28;20052;-65
2021/07/21 02:53:36;;;;;;;;;;;;;;;20.23;74.29;96624.97;5044109;28;20451;-65
2021/07/21 02:56:07;;;;;;;19.45;13.70;;;;;;;20.17;74.68;96614.75;5058899;28;19931;-65
2021/07/21 02:58:40;;;;;;;29.05;16.77;;;;;;;20.18;73.86;96619.13;5042002;28;20077;-67
2021/07/21 03:01:08;;;;;;;16.98;12.73;;;;;;;20.19;73.05;96631.94;5042010;28;20059;-65
2021/07/21 03:03:36;;;;;;;15.05;12.32;;;;;;;19.80;73.08;96559.06;5041973;28;20127;-64
2021/07/21 03:06:08;;;;;;;15.23;12.38;;;;;;;20.16;72.58;96618.78;5044162;28;20068;-65
2021/07/21 03:08:36;;;;;;;17.00;11.90;;;;;;;20.19;72.15;96620.69;5041940;28;20052;-65
2021/07/21 03:11:04;;;;;;;19.90;12.82;;;;;;;20.24;71.99;96628.59;5043751;28;20075;-65
2021/07/21 03:13:42;;;;;;;17.38;12.50;;;;;;;20.00;71.44;96585.03;5041636;28;20051;-67
2021/07/21 03:16:10;;;;;;;20.52;13.57;;;;;;;19.98;72.26;96607.97;5041871;28;20056;-66
2021/07/21 03:18:39;;;;;;;21.38;14.70;;;;;;;20.25;73.35;96638.63;5041900;28;20118;-65
2021/07/21 03:21:08;;;;;;;46.40;20.75;;;;;;;19.65;76.54;96636.56;5030894;28;20057;-65
2021/07/21 03:23:36;;;;;;;60.80;26.25;;;;;;;19.74;76.64;96640.34;5021924;28;20508;-66
2021/07/21 03:26:07;;;;;;;154.43;56.53;;;;;;;19.86;76.23;96633.19;5023370;28;20057;-64
2021/07/21 03:28:36;;;;;;;24.48;15.80;;;;;;;19.98;75.41;96647.31;5021718;28;20045;-65
2021/07/21 03:31:04;;;;;;;21.17;16.13;;;;;;;19.92;76.06;96637.84;5022220;28;20053;-65
2021/07/21 03:33:32;;;;;;;135.18;43.78;;;;;;;19.54;76.35;96609.53;5038225;28;20046;-66
2021/07/21 03:36:04;;;;;;;63.10;25.55;;;;;;;20.08;75.84;96642.66;5023616;28;20060;-65
2021/07/21 03:38:32;;;;;;;24.83;15.35;;;;;;;19.83;75.02;96603.97;5023120;28;20057;-65
2021/07/21 03:41:00;;;;;;;19.08;15.68;;;;;;;18.75;79.91;96568.88;5023873;28;20096;-65
2021/07/21 03:43:29;;;;;;;26.65;16.08;;;;;;;19.41;79.83;96656.38;5023669;28;20217;-66
2021/07/21 03:45:58;;;;;;;43.20;19.33;;;;;;;19.19;79.25;96593.50;5021767;28;20054;-64
2021/07/21 03:48:27;;;;;;;24.30;16.63;;;;;;;19.52;79.66;96656.94;5022849;28;20099;-67
2021/07/21 03:50:56;;;;;;;23.73;16.58;;;;;;;19.31;80.47;96671.50;5021481;28;20068;-64
2021/07/21 03:53:25;;;;;;;27.60;17.45;;;;;;;19.40;79.96;96642.78;5021896;28;20053;-64
2021/07/21 03:55:55;;;;;;;28.05;17.08;;;;;;;19.71;78.13;96634.81;5021648;28;20080;-64
2021/07/21 03:58:22;;;;;;;21.05;16.70;;;;;;;19.87;76.90;96646.03;5022081;28;20068;-65
2021/07/21 04:00:52;;;;;;;36.67;22.45;;;;;;;19.89;76.57;96633.13;5021481;28;20593;-65
2021/07/21 04:03:22;;;;;;;22.23;16.80;;;;;;;19.94;77.90;96665.53;5021814;28;20493;-64
2021/07/21 04:05:50;;;;;;;24.98;17.60;;;;;;;19.83;76.79;96605.97;5038165;28;20053;-66
2021/07/21 04:08:18;;;;;;;28.85;17.83;;;;;;;20.50;74.70;96669.69;5021436;28;20061;-66
2021/07/21 04:10:47;;;;;;;84.78;29.58;;;;;;;20.74;73.78;96668.97;5022982;28;20057;-65
2021/07/21 04:13:17;;;;;;;31.45;20.45;;;;;;;20.99;72.32;96657.03;5025510;28;20045;-65
2021/07/21 04:15:46;;;;;;;22.05;16.00;;;;;;;21.21;71.40;96652.31;5027203;28;20064;-64
2021/07/21 04:18:14;;;;;;;27.55;16.27;;;;;;;21.44;69.50;96663.25;5025636;28;20085;-65
2021/07/21 04:20:42;;;;;;;25.73;15.88;;;;;;;21.52;69.31;96666.63;5034229;28;20069;-66
2021/07/21 04:23:10;;;;;;;23.27;17.52;;;;;;;21.34;70.47;96641.06;5045100;28;20061;-65
2021/07/21 04:25:38;;;;;;;21.55;16.13;;;;;;;21.06;73.16;96668.06;5046043;28;20856;-65
2021/07/21 04:28:05;;;;;;;17.63;14.93;;;;;;;20.72;72.62;96572.13;5046478;28;20055;-65
2021/07/21 04:30:32;;;;;;;20.98;14.80;;;;;;;21.55;71.03;96677.00;5046495;28;20175;-67
2021/07/21 04:33:00;;;;;;;22.40;14.95;;;;;;;21.28;70.77;96601.38;5046820;28;20118;-66
2021/07/21 04:35:29;;;;;;;19.75;13.93;;;;;;;22.04;68.05;96675.41;5044894;28;20053;-65
2021/07/21 04:37:56;;;;;;;16.25;14.30;;;;;;;22.21;66.63;96663.50;5045132;28;20519;-64
2021/07/21 04:40:25;;;;;;;23.88;17.30;;;;;;;22.37;66.12;96666.19;5061293;28;20053;-65
2021/07/21 04:42:52;;;;;;;22.38;15.82;;;;;;;22.29;66.23;96624.53;5045994;28;20132;-64
2021/07/21 04:45:21;;;;;;;19.73;13.60;;;;;;;22.51;64.00;96635.88;5027002;28;20060;-65
2021/07/21 04:47:49;;;;;;;24.48;14.38;;;;;;;20.98;61.59;96396.34;5024817;28;20061;-66
2021/07/21 04:50:20;;;;;;;19.50;13.15;;;;;;;22.85;60.77;96644.28;5024710;28;20053;-65
2021/07/21 04:52:48;;;;;;;27.83;13.77;;;;;;;23.00;60.29;96634.81;5026057;28;20440;-65
2021/07/21 04:55:16;;;;;;;38.47;14.20;;;;;;;23.49;59.38;96674.56;5024749;28;20165;-64
2021/07/21 04:57:45;;;;;;;22.63;13.80;;;;;;;23.06;59.27;96598.28;5025134;28;20206;-64
2021/07/21 05:00:12;;;;;;;20.73;14.07;;;;;;;23.71;58.93;96678.88;5025982;28;20088;-67
2021/07/21 05:02:39;;;;;;;19.95;13.18;;;;;;;23.43;60.69;96668.69;5025701;28;20431;-65
2021/07/21 05:05:08;;;;;;;18.50;12.30;;;;;;;23.26;60.71;96630.59;5025660;28;20526;-66
2021/07/21 05:07:35;;;;;;;19.73;12.82;;;;;;;23.50;61.62;96684.59;5025475;28;20049;-64
2021/07/21 05:10:02;;;;;;;25.70;12.73;;;;;;;23.62;60.07;96683.69;5025565;28;20079;-64
2021/07/21 05:12:29;;;;;;;17.67;13.07;;;;;;;23.70;60.39;96690.66;5024066;28;20057;-65
2021/07/21 05:14:55;;;;;;;25.17;14.27;;;;;;;23.73;58.61;96635.97;5024364;28;20068;-65
2021/07/21 05:17:22;;;;;;;27.83;12.95;;;;;;;23.65;55.61;96595.09;5024386;28;20516;-65
2021/07/21 05:19:49;;;;;;;26.33;14.10;;;;;;;24.03;58.55;96677.59;5025239;28;20053;-63
2021/07/21 05:22:16;;;;;;;20.27;13.98;;;;;;;24.02;55.66;96635.59;5004336;28;20169;-64
2021/07/21 05:24:43;;;;;;;22.92;13.13;;;;;;;24.34;55.05;96669.81;5020155;28;20481;-64
2021/07/21 05:27:10;;;;;;;17.48;13.40;;;;;;;24.33;55.44;96656.88;5005306;28;20077;-62
2021/07/21 05:29:37;;;;;;;15.63;12.25;;;;;;;24.17;56.19;96693.97;5020350;28;20052;-65
2021/07/21 05:32:04;;;;;;;19.45;12.25;;;;;;;24.36;53.35;96655.94;5011170;28;20135;-66
2021/07/21 05:34:31;;;;;;;17.63;12.13;;;;;;;24.44;52.03;96639.44;5023830;28;20053;-70
2021/07/21 05:36:57;;;;;;;15.13;11.77;;;;;;;24.91;52.25;96680.22;5024743;28;20053;-67
2021/07/21 05:39:24;;;;;;;17.38;13.20;;;;;;;25.17;51.64;96681.44;5024840;28;20064;-62
2021/07/21 05:41:56;;;;;;;18.27;12.32;;;;;;;25.30;50.42;96656.53;5023047;28;20059;-66
2021/07/21 05:44:24;;;;;;;18.02;12.45;;;;;;;25.79;50.26;96709.34;5024981;28;20199;-67
2021/07/21 05:46:51;;;;;;;22.33;13.35;;;;;;;26.04;49.61;96703.28;5023527;28;20045;-59
2021/07/21 05:49:18;;;;;;;16.73;12.55;;;;;;;26.13;48.85;96681.28;5024574;28;20060;-64
2021/07/21 05:51:45;;;;;;;18.52;12.45;;;;;;;25.76;47.94;96596.78;5025139;28;20061;-67
2021/07/21 05:54:12;;;;;;;18.92;11.35;;;;;;;26.42;44.14;96706.22;5024626;28;20089;-63
2021/07/21 05:56:39;;;;;;;16.70;11.45;;;;;;;26.63;43.90;96719.34;5024683;28;20069;-69
2021/07/21 05:59:07;;;;;;;20.73;11.90;;;;;;;26.30;43.92;96634.16;5024509;28;20575;-64
2021/07/21 06:01:34;;;;;;;17.42;11.93;;;;;;;26.46;43.68;96747.38;5024389;28;20049;-68
2021/07/21 06:04:02;;;;;;;17.75;11.27;;;;;;;26.53;43.91;96649.63;5023877;28;20088;-69
2021/07/21 06:06:30;;;;;;;14.20;11.18;;;;;;;26.80;43.80;96646.59;5023593;28;20432;-60
2021/07/21 06:08:56;;;;;;;16.13;11.85;;;;;;;27.12;43.13;96696.88;5024793;28;20052;-59
2021/07/21 06:11:23;;;;;;;19.65;12.38;;;;;;;27.00;43.24;96700.75;5023779;28;20049;-58
2021/07/21 06:13:51;;;;;;;16.95;12.25;;;;;;;26.12;41.74;96573.88;5025119;28;20049;-60
2021/07/21 06:16:19;;;;;;;13.95;12.23;;;;;;;27.25;41.75;96693.75;5024338;28;20057;-61
2021/07/21 06:18:46;;;;;;;23.17;13.63;;;;;;;27.24;41.24;96684.41;5024605;28;20063;-61
2021/07/21 06:21:13;;;;;;;14.48;12.10;;;;;;;26.88;40.60;96693.28;5035386;28;20425;-65
2021/07/21 06:23:40;;;;;;;19.60;11.45;;;;;;;27.15;40.57;96678.81;5044151;28;20059;-60
2021/07/21 06:26:07;;;;;;;22.80;13.18;;;;;;;27.34;40.45;96660.31;5041289;28;20065;-63
2021/07/21 06:28:34;;;;;;;18.77;12.13;;;;;;;27.70;40.53;96690.41;5023915;28;20053;-63
2021/07/21 06:31:01;;;;;;;13.98;11.73;;;;;;;27.42;39.83;96624.50;5024622;28;20060;-62
2021/07/21 06:33:28;;;;;;;18.38;12.10;;;;;;;27.85;39.11;96612.25;5023402;28;20053;-62
2021/07/21 06:35:54;;;;;;;15.38;11.80;;;;;;;28.10;39.35;96645.81;5038794;28;20489;-59
2021/07/21 06:38:21;;;;;;;16.52;11.10;;;;;;;27.80;38.42;96649.19;5039238;28;20057;-63
2021/07/21 06:40:48;;;;;;;15.23;11.68;;;;;;;26.77;38.97;96448.59;5024188;28;20065;-62
2021/07/21 06:43:15;;;;;;;16.63;11.82;;;;;;;28.13;38.32;96664.75;5023847;28;20073;-61
2021/07/21 06:45:42;;;;;;;15.63;11.70;;;;;;;28.60;37.45;96702.72;5024146;28;20053;-66
2021/07/21 06:48:09;;;;;;;16.95;12.32;;;;;;;28.50;36.75;96672.78;5024209;28;20195;-62
2021/07/21 06:50:36;;;;;;;13.98;11.30;;;;;;;28.62;36.45;96720.13;5024401;28;20045;-64
2021/07/21 06:53:03;;;;;;;15.13;11.85;;;;;;;28.52;36.93;96687.31;5023462;28;20057;-61
2021/07/21 06:55:29;;;;;;;16.02;11.63;;;;;;;27.70;37.32;96620.03;5024031;28;20057;-62
2021/07/21 06:57:56;;;;;;;13.80;11.95;;;;;;;28.59;37.19;96689.75;5023635;28;20045;-60
2021/07/21 07:00:23;;;;;;;14.70;11.65;;;;;;;28.81;36.07;96695.75;5023321;28;20057;-61
2021/07/21 07:02:49;;;;;;;17.30;12.52;;;;;;;28.82;35.38;96683.03;5022071;28;20059;-61
2021/07/21 07:05:16;;;;;;;18.35;11.73;;;;;;;29.01;35.31;96698.56;5022276;28;20057;-60
2021/07/21 07:07:43;;;;;;;16.92;12.77;;;;;;;29.02;35.13;96683.81;5021886;28;20057;-62
2021/07/21 07:10:11;;;;;;;13.55;11.43;;;;;;;29.25;32.78;96693.44;5022792;28;20049;-61
2021/07/21 07:12:37;;;;;;;25.15;14.07;;;;;;;27.70;33.44;96491.94;5024394;28;20049;-61
2021/07/21 07:15:05;;;;;;;19.88;13.02;;;;;;;28.44;32.97;96612.81;5037867;28;20428;-61
2021/07/21 07:17:33;;;;;;;15.68;12.50;;;;;;;28.82;33.02;96694.44;5022492;28;20053;-64
2021/07/21 07:20:00;;;;;;;18.27;12.40;;;;;;;28.14;32.85;96597.94;5021737;28;20056;-61
2021/07/21 07:22:27;;;;;;;17.75;11.85;;;;;;;28.57;33.24;96638.16;5017777;28;20452;-57
2021/07/21 07:24:53;;;;;;;16.58;12.32;;;;;;;28.95;33.40;96686.31;5033540;28;20053;-58
2021/07/21 07:27:20;;;;;;;15.85;12.25;;;;;;;28.98;33.55;96691.00;5015195;28;20156;-59
2021/07/21 07:29:47;;;;;;;15.77;12.98;;;;;;;29.09;34.11;96668.34;5019661;28;20525;-60
2021/07/21 07:32:14;;;;;;;14.18;10.90;;;;;;;28.46;34.60;96609.47;5023135;28;20451;-62
2021/07/21 07:34:42;;;;;;;20.27;12.35;;;;;;;28.43;34.27;96596.22;5020373;28;20041;-62
2021/07/21 07:37:08;;;;;;;16.00;12.13;;;;;;;29.09;33.19;96674.06;5022451;28;20062;-62
2021/07/21 07:39:35;;;;;;;18.90;12.85;;;;;;;29.31;32.72;96708.53;5019893;28;20049;-64
2021/07/21 07:42:02;;;;;;;18.27;12.15;;;;;;;28.78;33.09;96653.97;5021893;28;20071;-65
2021/07/21 07:44:29;;;;;;;14.30;12.43;;;;;;;28.42;32.17;96591.81;5022269;28;20057;-68
2021/07/21 07:46:56;;;;;;;18.10;12.10;;;;;;;29.01;32.98;96724.25;5025310;28;20056;-65
2021/07/21 07:49:28;;;;;;;18.05;12.75;;;;;;;28.83;33.18;96713.94;5026988;28;20057;-68
2021/07/21 07:51:55;;;;;;;15.38;12.30;;;;;;;29.03;33.51;96710.28;5027268;28;20061;-61
2021/07/21 07:54:22;;;;;;;14.95;11.93;;;;;;;28.87;32.77;96656.66;5026418;28;20049;-63
2021/07/21 07:56:49;;;;;;;15.25;12.85;;;;;;;29.28;32.59;96689.56;5025012;28;20447;-62
2021/07/21 07:59:16;;;;;;;13.45;12.05;;;;;;;29.51;32.42;96711.34;5025572;28;20098;-65
2021/07/21 08:01:43;;;;;;;14.57;11.95;;;;;;;29.57;32.26;96686.50;5035229;28;20050;-64
2021/07/21 08:04:10;;;;;;;13.50;11.20;;;;;;;29.83;32.60;96707.25;5011973;28;20558;-64
2021/07/21 08:06:37;;;;;;;18.73;11.85;;;;;;;29.68;32.29;96698.03;5021838;28;20132;-65
2021/07/21 08:09:12;;;;;;;18.90;11.88;;;;;;;29.30;32.46;96638.47;5026139;28;20080;-62
2021/07/21 08:11:45;;;;;;;21.50;11.95;;;;;;;29.69;32.63;96719.59;5024680;28;20136;-61
2021/07/21 08:14:12;;;;;;;15.10;11.48;;;;;;;29.31;31.99;96646.53;5012155;28;20054;-69
2021/07/21 08:16:39;;;;;;;14.73;12.52;;;;;;;29.90;32.31;96706.00;5025893;28;20063;-62
2021/07/21 08:19:06;;;;;;;15.57;11.18;;;;;;;29.80;31.43;96665.44;5026597;28;20068;-62
2021/07/21 08:21:33;;;;;;;14.73;11.40;;;;;;;30.07;31.71;96712.63;5023616;28;20076;-65
2021/07/21 08:24:00;;;;;;;15.88;11.50;;;;;;;30.28;31.53;96709.22;5026337;28;20103;-66
2021/07/21 08:26:27;;;;;;;16.10;11.60;;;;;;;30.28;30.91;96706.34;5025568;28;20583;-68
2021/07/21 08:28:57;;;;;;;17.25;11.50;;;;;;;30.18;31.18;96690.66;5026114;28;20104;-59
2021/07/21 08:31:23;;;;;;;19.42;12.23;;;;;;;30.35;30.74;96700.16;5022552;28;20049;-59
2021/07/21 08:33:50;;;;;;;17.83;12.80;;;;;;;30.34;30.17;96675.72;5025907;28;20049;-67
2021/07/21 08:36:17;;;;;;;12.82;11.38;;;;;;;30.35;30.74;96653.66;5026240;28;20053;-62
2021/07/21 08:38:44;;;;;;;16.65;12.00;;;;;;;30.77;31.00;96694.44;5026224;28;20065;-60
2021/07/21 08:41:11;;;;;;;17.80;12.68;;;;;;;31.03;30.44;96696.38;5025384;28;20168;-60
2021/07/21 08:43:41;;;;;;;17.83;12.20;;;;;;;30.76;29.87;96661.41;5024301;28;20053;-60
2021/07/21 08:46:08;;;;;;;15.73;13.48;;;;;;;30.77;30.33;96685.88;5025500;28;20046;-64
2021/07/21 08:48:34;;;;;;;20.00;13.45;;;;;;;31.22;29.64;96691.75;5023793;28;20111;-63
2021/07/21 08:51:03;;;;;;;16.77;11.65;;;;;;;31.24;29.88;96684.19;5039602;28;20052;-64
2021/07/21 08:53:31;;;;;;;14.52;12.52;;;;;;;31.14;29.07;96685.75;5024331;28;20050;-60
2021/07/21 08:55:58;;;;;;;17.00;11.85;;;;;;;30.87;28.96;96660.69;5025269;28;20053;-61
2021/07/21 08:58:25;;;;;;;18.25;12.73;;;;;;;30.34;29.46;96569.94;5025694;28;20119;-67
2021/07/21 09:00:55;;;;;;;13.70;11.65;;;;;;;31.21;29.23;96673.00;5024517;28;20050;-69
2021/07/21 09:03:22;;;;;;;18.77;12.73;;;;;;;31.31;28.90;96682.94;5039801;28;20497;-62
2021/07/21 09:05:53;;;;;;;17.23;12.45;;;;;;;31.15;29.17;96684.44;5025255;28;20053;-62
2021/07/21 09:08:20;;;;;;;16.25;12.85;;;;;;;30.88;29.49;96683.06;5016490;28;20160;-64
2021/07/21 09:10:48;;;;;;;14.32;12.40;;;;;;;30.73;29.69;96639.50;5023429;28;20054;-63
2021/07/21 09:13:16;;;;;;;15.60;12.77;;;;;;;31.05;29.69;96679.47;5025130;28;20497;-66
2021/07/21 09:15:43;;;;;;;14.35;12.50;;;;;;;30.64;29.69;96599.72;5024279;28;20116;-67
2021/07/21 09:18:16;;;;;;;15.70;13.32;;;;;;;30.48;29.82;96560.38;5025343;28;20159;-69
2021/07/21 09:21:06;;;;;;;18.55;12.60;;;;;;;31.19;29.21;96676.38;5023072;28;20584;-64
2021/07/21 09:23:41;;;;;;;18.40;13.50;;;;;;;30.74;30.03;96663.97;5024629;28;20278;-62
2021/07/21 09:26:08;;;;;;;14.02;12.20;;;;;;;29.56;29.99;96528.66;5025344;28;20050;-62
2021/07/21 09:28:38;;;;;;;17.70;13.38;;;;;;;30.49;30.45;96670.59;5025575;28;20564;-63
2021/07/21 09:31:06;;;;;;;16.98;12.60;;;;;;;30.60;30.24;96682.09;5022808;28;20053;-60
2021/07/21 09:33:34;;;;;;;16.08;12.98;;;;;;;30.24;29.64;96597.19;5024619;28;20049;-63
2021/07/21 09:36:01;;;;;;;16.75;12.85;;;;;;;30.86;29.83;96679.91;5024976;28;20156;-66
2021/07/21 09:38:30;;;;;;;15.80;12.70;;;;;;;30.79;29.89;96671.81;5024081;28;20053;-67
2021/07/21 09:41:00;;;;;;;17.77;13.23;;;;;;;30.65;30.12;96678.47;5023889;28;20069;-61
2021/07/21 09:43:30;;;;;;;18.65;12.57;;;;;;;30.37;30.29;96686.13;5021674;28;20057;-67
2021/07/21 09:46:08;;;;;;;16.42;12.18;;;;;;;30.25;30.04;96664.50;5022519;28;20049;-60
2021/07/21 09:48:39;;;;;;;15.65;12.85;;;;;;;30.40;30.09;96685.09;5023464;28;20053;-67
2021/07/21 09:51:07;;;;;;;16.13;12.30;;;;;;;30.45;29.72;96652.91;5017704;28;20057;-62
2021/07/21 09:53:42;;;;;;;16.80;11.82;;;;;;;31.05;29.40;96665.94;5012722;28;20057;-66
2021/07/21 09:56:09;;;;;;;17.77;12.73;;;;;;;30.62;28.79;96593.72;5025769;28;20049;-66
2021/07/21 09:58:36;;;;;;;15.70;12.02;;;;;;;31.28;28.71;96672.50;5007637;28;20042;-60
2021/07/21 10:01:05;;;;;;;13.00;11.63;;;;;;;31.10;28.32;96616.50;5005186;28;20062;-66
2021/07/21 10:03:35;;;;;;;14.77;11.38;;;;;;;31.38;28.29;96665.28;5020522;28;20057;-65
2021/07/21 10:06:04;;;;;;;14.55;11.57;;;;;;;31.16;28.89;96665.19;5025091;28;20211;-65
2021/07/21 10:08:31;;;;;;;16.27;11.75;;;;;;;31.33;28.75;96663.19;5023859;28;20049;-62
2021/07/21 10:10:59;;;;;;;13.98;11.10;;;;;;;31.29;28.24;96643.34;5025099;28;20580;-67
2021/07/21 10:13:35;;;;;;;13.27;10.50;;;;;;;29.22;27.64;96300.66;5024374;28;20056;-66
2021/07/21 10:16:02;;;;;;;13.07;11.05;;;;;;;31.43;26.95;96656.69;5025126;28;20076;-65
2021/07/21 10:18:29;;;;;;;10.35;9.23;;;;;;;31.73;25.92;96651.22;5023646;28;20053;-66
2021/07/21 10:20:55;;;;;;;12.10;10.63;;;;;;;31.70;26.23;96595.75;5024227;28;20083;-66
2021/07/21 10:23:23;;;;;;;14.05;10.10;;;;;;;31.36;26.48;96571.31;5023688;28;20079;-66
2021/07/21 10:25:50;;;;;;;12.63;10.00;;;;;;;31.95;26.64;96665.56;5019821;28;20051;-65
2021/07/21 10:28:17;;;;;;;12.18;10.98;;;;;;;32.06;26.44;96662.69;5023555;28;20400;-59
2021/07/21 10:30:44;;;;;;;14.50;9.80;;;;;;;32.07;26.06;96664.28;5024095;28;20135;-61
2021/07/21 10:33:11;;;;;;;11.52;9.73;;;;;;;31.49;25.94;96619.47;5012381;28;20050;-60
2021/07/21 10:35:38;;;;;;;12.10;10.05;;;;;;;31.58;26.11;96650.72;5013402;28;20073;-62
2021/07/21 10:38:07;;;;;;;10.68;9.57;;;;;;;30.56;25.94;96512.84;5027498;28;20045;-63
2021/07/21 10:40:35;;;;;;;12.48;10.18;;;;;;;31.51;25.83;96656.94;5038761;28;20053;-60
2021/07/21 10:43:04;;;;;;;11.07;9.88;;;;;;;31.56;26.33;96659.03;5023092;28;20111;-60
2021/07/21 10:45:33;;;;;;;13.00;10.57;;;;;;;31.28;27.10;96626.69;5015383;28;20050;-64
2021/07/21 10:48:19;;;;;;;12.77;10.20;;;;;;;31.31;26.89;96628.56;5004046;28;20058;-64
2021/07/21 10:53:23;;;;;;;13.68;10.30;;;;;;;31.68;26.82;96649.16;5022576;28;20462;-65
2021/07/21 10:59:11;;;;;;;11.77;10.45;;;;;;;31.95;26.11;96639.78;5022805;28;20050;-64
2021/07/21 11:01:26;;;;;;;11.02;9.85;;;;;;;32.39;25.17;96639.72;5024138;28;20053;-66
2021/07/21 11:04:01;;;;;;;11.27;9.85;;;;;;;32.10;24.97;96621.03;5023085;28;20049;-63
2021/07/21 11:06:36;;;;;;;11.93;10.52;;;;;;;31.72;26.04;96586.66;5023265;28;20057;-66
2021/07/21 11:09:16;;;;;;;11.32;9.50;;;;;;;31.60;25.66;96565.06;5021322;28;20059;-65
2021/07/21 11:11:44;;;;;;;13.02;11.07;;;;;;;31.98;26.31;96641.63;5021463;28;20539;-64
2021/07/21 11:14:20;;;;;;;13.73;10.40;;;;;;;31.90;25.95;96624.16;5022786;28;20107;-66
2021/07/21 11:16:50;;;;;;;11.82;9.93;;;;;;;31.96;26.10;96627.03;5023184;28;20054;-62
2021/07/21 11:19:24;;;;;;;11.73;10.43;;;;;;;32.20;25.54;96616.56;5022989;28;20494;-64
2021/07/21 11:22:20;;;;;;;11.73;10.57;;;;;;;31.85;26.24;96630.69;5022635;28;20183;-66
2021/07/21 11:25:06;;;;;;;11.90;10.02;;;;;;;32.00;26.29;96636.13;5023068;28;20538;-65
2021/07/21 11:27:49;;;;;;;12.27;10.25;;;;;;;31.75;26.74;96625.72;5021511;28;20053;-65
2021/07/21 11:30:45;;;;;;;14.05;10.93;;;;;;;30.23;26.84;96384.13;5022351;28;20140;-63
2021/07/21 11:33:41;;;;;;;11.85;10.50;;;;;;;32.08;26.33;96625.69;5021924;28;20083;-65